createdAt,value
2024-03-10T00:00:31.552Z,9.61
2024-03-10T00:02:58.117Z,9.55
2024-03-10T00:05:25.042Z,9.52
2024-03-10T00:07:51.782Z,9.60
2024-03-10T00:10:19.206Z,9.56
2024-03-10T00:12:50.236Z,9.46
2024-03-10T00:15:17.893Z,9.43
2024-03-10T00:17:44.832Z,9.56
2024-03-10T00:20:12.175Z,9.47
2024-03-10T00:22:42.226Z,9.54
2024-03-10T00:25:09.701Z,9.53
2024-03-10T00:27:39.524Z,9.54
2024-03-10T00:30:07.205Z,9.53
2024-03-10T00:32:34.213Z,9.43
2024-03-10T00:35:02.657Z,9.50
2024-03-10T00:37:29.637Z,9.48
2024-03-10T00:39:56.166Z,9.48
2024-03-10T00:42:22.588Z,9.37
2024-03-10T00:44:49.099Z,9.31
2024-03-10T00:47:15.563Z,9.33
2024-03-10T00:49:42.204Z,9.30
2024-03-10T00:52:08.805Z,9.30
2024-03-10T00:54:35.508Z,9.28
2024-03-10T00:57:02.240Z,9.17
2024-03-10T00:59:28.752Z,9.23
2024-03-10T01:01:55.239Z,9.26
2024-03-10T01:04:21.879Z,9.26
2024-03-10T01:06:49.132Z,9.24
2024-03-10T01:09:19.619Z,9.24
2024-03-10T01:11:49.689Z,9.16
2024-03-10T01:14:16.263Z,9.13
2024-03-10T01:16:42.871Z,9.13
2024-03-10T01:19:12.614Z,9.19
2024-03-10T01:21:39.367Z,9.26
2024-03-10T01:24:08.150Z,9.24
2024-03-10T01:26:35.581Z,9.10
2024-03-10T01:29:02.744Z,9.06
2024-03-10T01:31:29.345Z,9.24
2024-03-10T01:33:55.819Z,9.21
2024-03-10T01:36:22.512Z,9.19
2024-03-10T01:38:49.020Z,9.11
2024-03-10T01:41:15.593Z,9.11
2024-03-10T01:43:42.152Z,9.04
2024-03-10T01:46:09.581Z,8.98
2024-03-10T01:48:38.508Z,9.07
2024-03-10T01:51:08.537Z,8.89
2024-03-10T01:53:38.265Z,8.92
2024-03-10T01:56:06.529Z,8.79
2024-03-10T01:58:33.962Z,8.87
2024-03-10T02:01:03.075Z,8.84
2024-03-10T02:03:30.744Z,8.74
2024-03-10T02:05:57.347Z,8.78
2024-03-10T02:08:24.638Z,8.69
2024-03-10T02:10:52.934Z,8.65
2024-03-10T02:13:20.034Z,8.75
2024-03-10T02:16:06.227Z,8.77
2024-03-10T02:18:36.285Z,8.72
2024-03-10T02:21:04.861Z,8.40
2024-03-10T02:23:41.417Z,8.56
2024-03-10T02:26:10.016Z,8.59
2024-03-10T02:28:47.522Z,8.72
2024-03-10T02:31:33.227Z,8.73
2024-03-10T02:34:18.198Z,8.74
2024-03-10T02:37:03.317Z,8.70
2024-03-10T02:39:48.205Z,8.68
2024-03-10T02:42:33.039Z,8.69
2024-03-10T02:45:17.757Z,8.67
2024-03-10T02:47:44.271Z,8.63
2024-03-10T02:50:11.513Z,8.58
2024-03-10T02:52:38.004Z,8.71
2024-03-10T02:55:05.054Z,8.69
2024-03-10T02:57:31.950Z,8.54
2024-03-10T02:59:58.797Z,8.68
2024-03-10T03:02:25.899Z,8.58
2024-03-10T03:04:52.672Z,8.56
2024-03-10T03:07:19.569Z,8.62
2024-03-10T03:09:46.923Z,8.59
2024-03-10T03:12:13.623Z,8.47
2024-03-10T03:14:41.194Z,7.99
2024-03-10T03:17:08.031Z,8.47
2024-03-10T03:19:34.927Z,8.53
2024-03-10T03:22:01.450Z,8.43
2024-03-10T03:24:28.204Z,8.42
2024-03-10T03:26:54.785Z,8.53
2024-03-10T03:29:21.710Z,8.47
2024-03-10T03:31:48.420Z,8.40
2024-03-10T03:34:14.901Z,8.46
2024-03-10T03:36:42.949Z,8.39
2024-03-10T03:39:12.606Z,8.44
2024-03-10T03:41:39.106Z,8.41
2024-03-10T03:44:05.889Z,8.39
2024-03-10T03:46:32.414Z,8.36
2024-03-10T03:48:58.888Z,8.23
2024-03-10T03:51:25.331Z,8.33
2024-03-10T03:53:51.853Z,8.26
2024-03-10T03:56:18.436Z,8.36
2024-03-10T03:58:44.940Z,8.27
2024-03-10T04:01:11.781Z,8.33
2024-03-10T04:03:38.315Z,8.22
2024-03-10T04:06:06.952Z,8.10
2024-03-10T04:08:33.659Z,8.29
2024-03-10T04:11:00.293Z,8.25
2024-03-10T04:13:26.840Z,8.19
2024-03-10T04:15:53.367Z,8.17
2024-03-10T04:18:19.853Z,8.12
2024-03-10T04:20:46.842Z,7.99
2024-03-10T04:23:13.350Z,7.93
2024-03-10T04:25:39.841Z,8.07
2024-03-10T04:28:06.477Z,8.04
2024-03-10T04:30:35.647Z,8.00
2024-03-10T04:33:02.245Z,7.98
2024-03-10T04:35:29.614Z,7.92
2024-03-10T04:37:56.133Z,7.92
2024-03-10T04:40:22.923Z,7.76
2024-03-10T04:42:49.717Z,7.77
2024-03-10T04:45:16.195Z,7.80
2024-03-10T04:47:42.737Z,7.86
2024-03-10T04:50:10.272Z,7.79
2024-03-10T04:52:37.129Z,7.61
2024-03-10T04:55:05.898Z,7.78
2024-03-10T04:57:34.183Z,7.65
2024-03-10T05:00:01.917Z,7.68
2024-03-10T05:02:28.610Z,7.72
2024-03-10T05:04:55.748Z,7.57
2024-03-10T05:07:22.399Z,7.74
2024-03-10T05:09:48.901Z,7.72
2024-03-10T05:12:15.737Z,7.67
2024-03-10T05:14:42.278Z,7.52
2024-03-10T05:17:08.777Z,7.70
2024-03-10T05:19:35.255Z,7.70
2024-03-10T05:22:01.877Z,7.64
2024-03-10T05:24:28.341Z,7.68
2024-03-10T05:26:54.834Z,7.66
2024-03-10T05:29:21.593Z,7.67
2024-03-10T05:31:48.199Z,7.58
2024-03-10T05:34:15.395Z,7.59
2024-03-10T05:36:41.967Z,7.59
2024-03-10T05:39:09.576Z,7.52
2024-03-10T05:41:36.496Z,7.56
2024-03-10T05:44:04.956Z,7.51
2024-03-10T05:46:31.564Z,7.46
2024-03-10T05:48:59.449Z,7.36
2024-03-10T05:51:26.014Z,7.44
2024-03-10T05:53:52.579Z,7.26
2024-03-10T05:56:19.761Z,7.45
2024-03-10T05:58:46.599Z,7.41
2024-03-10T06:01:13.596Z,7.42
2024-03-10T06:03:40.184Z,7.43
2024-03-10T06:06:08.275Z,7.45
2024-03-10T06:08:34.809Z,7.41
2024-03-10T06:11:02.428Z,7.36
2024-03-10T06:13:29.645Z,7.41
2024-03-10T06:15:56.209Z,7.40
2024-03-10T06:18:25.217Z,7.31
2024-03-10T06:21:10.981Z,7.39
2024-03-10T06:23:55.875Z,7.30
2024-03-10T06:26:22.909Z,7.34
2024-03-10T06:28:50.975Z,7.35
2024-03-10T06:31:18.827Z,7.26
2024-03-10T06:33:45.798Z,7.32
2024-03-10T06:36:15.128Z,7.34
2024-03-10T06:38:43.808Z,7.36
2024-03-10T06:41:11.120Z,7.28
2024-03-10T06:43:38.849Z,7.38
2024-03-10T06:46:05.559Z,7.20
2024-03-10T06:48:32.006Z,7.57
2024-03-10T06:50:58.440Z,8.19
2024-03-10T06:53:26.169Z,8.67
2024-03-10T06:55:57.422Z,9.05
2024-03-10T06:58:23.914Z,9.45
2024-03-10T07:00:50.460Z,9.72
2024-03-10T07:03:17.693Z,9.93
2024-03-10T07:05:44.193Z,10.05
2024-03-10T07:08:10.917Z,10.14
2024-03-10T07:10:37.720Z,10.25
2024-03-10T07:13:05.049Z,10.35
2024-03-10T07:15:32.034Z,10.47
2024-03-10T07:17:59.053Z,10.49
2024-03-10T07:20:26.057Z,10.50
2024-03-10T07:22:53.068Z,10.43
2024-03-10T07:25:19.879Z,10.51
2024-03-10T07:27:46.422Z,10.61
2024-03-10T07:30:13.901Z,10.60
2024-03-10T07:32:40.562Z,10.60
2024-03-10T07:35:10.330Z,10.66
2024-03-10T07:37:37.065Z,10.76
2024-03-10T07:40:08.252Z,10.69
2024-03-10T07:42:34.768Z,10.90
2024-03-10T07:45:01.213Z,10.79
2024-03-10T07:47:27.962Z,10.72
2024-03-10T07:49:54.484Z,10.67
2024-03-10T07:52:21.978Z,10.82
2024-03-10T07:54:48.400Z,10.81
2024-03-10T07:57:14.867Z,10.80
2024-03-10T07:59:41.301Z,10.80
2024-03-10T08:02:07.775Z,10.85
2024-03-10T08:04:34.493Z,10.92
2024-03-10T08:07:01.029Z,10.84
2024-03-10T08:09:27.793Z,10.38
2024-03-10T08:11:54.388Z,10.05
2024-03-10T08:14:22.370Z,9.83
2024-03-10T08:16:49.472Z,9.66
2024-03-10T08:19:16.112Z,9.50
2024-03-10T08:21:42.617Z,9.43
2024-03-10T08:24:10.895Z,9.29
2024-03-10T08:26:37.569Z,9.23
2024-03-10T08:29:04.080Z,9.28
2024-03-10T08:31:31.627Z,9.36
2024-03-10T08:33:58.115Z,9.35
2024-03-10T08:36:24.962Z,9.37
2024-03-10T08:38:52.175Z,9.39
2024-03-10T08:41:18.692Z,9.36
2024-03-10T08:43:45.351Z,9.42
2024-03-10T08:46:12.604Z,9.46
2024-03-10T08:48:39.037Z,9.50
2024-03-10T08:51:07.039Z,9.55
2024-03-10T08:53:34.661Z,9.54
2024-03-10T08:56:02.230Z,9.50
2024-03-10T08:58:29.468Z,9.63
2024-03-10T09:00:56.092Z,9.67
2024-03-10T09:03:23.662Z,9.58
2024-03-10T09:05:50.258Z,9.64
2024-03-10T09:08:16.749Z,9.65
2024-03-10T09:10:53.078Z,9.81
2024-03-10T09:13:25.053Z,9.84
2024-03-10T09:15:51.522Z,9.92
2024-03-10T09:18:18.786Z,9.94
2024-03-10T09:20:47.187Z,9.95
2024-03-10T09:23:14.293Z,10.05
2024-03-10T09:25:41.802Z,10.03
2024-03-10T09:28:08.394Z,10.12
2024-03-10T09:30:35.013Z,10.14
2024-03-10T09:33:01.862Z,10.16
2024-03-10T09:35:36.405Z,10.12
2024-03-10T09:38:06.105Z,10.22
2024-03-10T09:40:33.424Z,10.27
2024-03-10T09:43:06.019Z,10.29
2024-03-10T09:45:39.420Z,10.34
2024-03-10T09:48:10.850Z,10.38
2024-03-10T09:50:40.534Z,10.40
2024-03-10T09:53:09.452Z,10.43
2024-03-10T09:55:36.065Z,10.48
2024-03-10T09:58:11.550Z,10.51
2024-03-10T10:00:40.696Z,10.58
2024-03-10T10:03:10.383Z,10.63
2024-03-10T10:05:45.902Z,10.63
2024-03-10T10:08:13.706Z,10.72
2024-03-10T10:10:51.014Z,10.83
2024-03-10T10:13:24.724Z,10.88
2024-03-10T10:15:54.574Z,10.84
2024-03-10T10:18:22.486Z,10.99
2024-03-10T10:20:52.653Z,11.02
2024-03-10T10:23:24.718Z,11.13
2024-03-10T10:25:55.200Z,11.21
2024-03-10T10:28:21.681Z,11.26
2024-03-10T10:30:48.287Z,11.29
2024-03-10T10:33:15.562Z,11.42
2024-03-10T10:35:46.689Z,11.46
2024-03-10T10:38:14.414Z,11.41
2024-03-10T10:40:46.521Z,11.56
2024-03-10T10:43:13.734Z,11.57
2024-03-10T10:45:40.353Z,11.71
2024-03-10T10:48:09.990Z,11.73
2024-03-10T10:50:39.091Z,11.61
2024-03-10T10:53:07.857Z,11.73
2024-03-10T10:55:41.313Z,11.81
2024-03-10T10:58:12.925Z,11.79
2024-03-10T11:00:41.666Z,11.87
2024-03-10T11:03:18.798Z,11.93
2024-03-10T11:06:09.625Z,12.02
2024-03-10T11:08:38.072Z,12.06
2024-03-10T11:11:05.371Z,12.15
2024-03-10T11:13:33.270Z,12.20
2024-03-10T11:16:13.961Z,12.27
2024-03-10T11:18:40.817Z,12.33
2024-03-10T11:21:21.055Z,12.07
2024-03-10T11:23:49.870Z,12.51
2024-03-10T11:26:18.846Z,12.47
2024-03-10T11:28:50.556Z,12.61
2024-03-10T11:31:23.392Z,12.62
2024-03-10T11:34:09.020Z,12.73
2024-03-10T11:36:40.649Z,12.64
2024-03-10T11:39:08.664Z,12.72
2024-03-10T11:41:35.617Z,12.85
2024-03-10T11:44:02.406Z,12.87
2024-03-10T11:46:32.826Z,12.73
2024-03-10T11:48:59.852Z,13.04
2024-03-10T11:51:28.919Z,13.07
2024-03-10T11:53:56.311Z,12.95
2024-03-10T11:56:23.615Z,13.11
2024-03-10T11:58:52.979Z,12.97
2024-03-10T12:01:20.338Z,13.13
2024-03-10T12:03:48.743Z,13.14
2024-03-10T12:06:18.698Z,13.14
2024-03-10T12:08:45.920Z,13.27
2024-03-10T12:11:13.860Z,13.39
2024-03-10T12:13:44.642Z,13.44
2024-03-10T12:16:12.291Z,13.48
2024-03-10T12:18:42.261Z,13.45
2024-03-10T12:21:16.886Z,13.57
2024-03-10T12:23:44.200Z,13.69
2024-03-10T12:26:16.488Z,13.60
2024-03-10T12:28:44.728Z,13.90
2024-03-10T12:31:14.457Z,13.98
2024-03-10T12:33:43.672Z,14.08
2024-03-10T12:36:14.093Z,14.10
2024-03-10T12:38:41.930Z,14.12
2024-03-10T12:41:09.221Z,14.06
2024-03-10T12:43:37.886Z,14.10
2024-03-10T12:46:05.622Z,14.09
2024-03-10T12:48:34.927Z,14.20
2024-03-10T12:51:03.275Z,14.11
2024-03-10T12:53:29.757Z,14.19
2024-03-10T12:55:56.852Z,14.13
2024-03-10T12:58:23.671Z,14.09
2024-03-10T13:00:50.140Z,13.93
2024-03-10T13:03:16.702Z,13.76
2024-03-10T13:05:43.184Z,13.81
2024-03-10T13:08:10.783Z,13.92
2024-03-10T13:10:37.398Z,13.87
2024-03-10T13:13:08.696Z,13.95
2024-03-10T13:15:38.716Z,13.93
2024-03-10T13:18:08.612Z,13.94
2024-03-10T13:20:38.143Z,13.96
2024-03-10T13:23:06.646Z,14.00
2024-03-10T13:25:34.184Z,13.98
2024-03-10T13:28:01.510Z,13.80
2024-03-10T13:30:27.979Z,14.05
2024-03-10T13:32:54.617Z,14.15
2024-03-10T13:35:21.215Z,14.13
2024-03-10T13:37:48.056Z,14.07
2024-03-10T13:40:18.684Z,14.04
2024-03-10T13:42:48.720Z,13.92
2024-03-10T13:45:23.250Z,13.91
2024-03-10T13:47:59.945Z,13.91
2024-03-10T13:50:26.599Z,13.92
2024-03-10T13:52:53.267Z,13.93
2024-03-10T13:55:21.953Z,13.96
2024-03-10T13:57:49.329Z,14.04
2024-03-10T14:00:20.196Z,14.18
2024-03-10T14:02:46.865Z,14.26
2024-03-10T14:05:16.069Z,14.26
2024-03-10T14:07:44.030Z,14.35
2024-03-10T14:10:12.051Z,14.39
2024-03-10T14:12:39.489Z,14.40
2024-03-10T14:15:10.593Z,14.39
2024-03-10T14:17:42.134Z,14.35
2024-03-10T14:20:15.081Z,14.23
2024-03-10T14:22:46.185Z,14.24
2024-03-10T14:25:13.820Z,14.17
2024-03-10T14:27:49.081Z,14.12
2024-03-10T14:30:16.065Z,13.93
2024-03-10T14:32:42.834Z,14.02
2024-03-10T14:35:12.592Z,13.70
2024-03-10T14:37:44.861Z,13.93
2024-03-10T14:40:19.202Z,13.82
2024-03-10T14:42:47.501Z,13.91
2024-03-10T14:45:14.091Z,13.89
2024-03-10T14:47:40.771Z,13.90
2024-03-10T14:50:09.498Z,13.89
2024-03-10T14:52:36.210Z,13.82
2024-03-10T14:55:05.374Z,13.77
2024-03-10T14:57:32.463Z,13.77
2024-03-10T15:00:01.125Z,13.79
2024-03-10T15:02:28.417Z,13.90
2024-03-10T15:04:54.979Z,13.78
2024-03-10T15:07:23.460Z,13.76
2024-03-10T15:09:50.121Z,13.75
2024-03-10T15:12:17.554Z,13.70
2024-03-10T15:14:44.549Z,13.70
2024-03-10T15:17:13.819Z,13.68
2024-03-10T15:19:40.306Z,13.66
2024-03-10T15:22:08.128Z,13.61
2024-03-10T15:24:36.796Z,13.48
2024-03-10T15:27:07.761Z,13.59
2024-03-10T15:29:35.913Z,13.48
2024-03-10T15:32:03.852Z,13.45
2024-03-10T15:34:31.625Z,13.49
2024-03-10T15:37:00.388Z,13.46
2024-03-10T15:39:29.058Z,13.36
2024-03-10T15:41:56.875Z,13.46
2024-03-10T15:44:26.067Z,13.38
2024-03-10T15:46:53.181Z,13.45
2024-03-10T15:49:20.610Z,13.44
2024-03-10T15:51:47.213Z,13.40
2024-03-10T15:54:15.414Z,13.35
2024-03-10T15:56:42.093Z,13.29
2024-03-10T15:59:09.312Z,13.29
2024-03-10T16:01:35.985Z,13.22
2024-03-10T16:04:07.079Z,13.22
2024-03-10T16:06:33.610Z,13.12
2024-03-10T16:09:00.313Z,13.18
2024-03-10T16:11:27.594Z,13.06
2024-03-10T16:14:07.844Z,13.01
2024-03-10T16:16:34.726Z,13.05
2024-03-10T16:19:01.946Z,12.99
2024-03-10T16:21:37.350Z,12.98
2024-03-10T16:24:09.046Z,12.98
2024-03-10T16:26:35.660Z,12.96
2024-03-10T16:29:03.049Z,12.84
2024-03-10T16:31:30.911Z,12.80
2024-03-10T16:33:58.053Z,12.89
2024-03-10T16:36:24.518Z,12.77
2024-03-10T16:38:50.990Z,12.82
2024-03-10T16:41:17.479Z,12.74
2024-03-10T16:43:45.064Z,12.70
2024-03-10T16:46:13.680Z,12.69
2024-03-10T16:48:40.656Z,12.68
2024-03-10T16:51:10.280Z,12.66
2024-03-10T16:53:37.341Z,12.62
2024-03-10T16:56:04.229Z,12.39
2024-03-10T16:58:31.075Z,12.48
2024-03-10T17:01:00.408Z,12.44
2024-03-10T17:03:27.007Z,12.48
2024-03-10T17:05:56.420Z,12.45
2024-03-10T17:08:24.702Z,12.26
2024-03-10T17:10:51.400Z,12.35
2024-03-10T17:13:18.820Z,12.31
2024-03-10T17:15:45.306Z,12.24
2024-03-10T17:18:14.115Z,12.08
2024-03-10T17:20:41.976Z,12.21
2024-03-10T17:23:08.855Z,12.18
2024-03-10T17:25:36.241Z,12.15
2024-03-10T17:28:05.489Z,12.07
2024-03-10T17:30:33.376Z,11.94
2024-03-10T17:32:59.950Z,11.88
2024-03-10T17:35:27.731Z,11.99
2024-03-10T17:37:54.324Z,11.97
2024-03-10T17:40:28.208Z,11.88
2024-03-10T17:42:56.366Z,11.87
2024-03-10T17:45:23.470Z,11.79
2024-03-10T17:47:51.259Z,11.86
2024-03-10T17:50:18.060Z,11.81
2024-03-10T17:52:44.651Z,11.72
2024-03-10T17:55:11.172Z,11.76
2024-03-10T17:57:37.623Z,11.75
2024-03-10T18:00:07.002Z,11.73
2024-03-10T18:02:34.055Z,11.59
2024-03-10T18:05:00.864Z,11.62
2024-03-10T18:07:27.744Z,11.66
2024-03-10T18:09:55.097Z,11.65
2024-03-10T18:12:24.521Z,11.48
2024-03-10T18:14:51.692Z,11.56
2024-03-10T18:17:18.672Z,11.59
2024-03-10T18:19:45.202Z,11.58
2024-03-10T18:22:16.859Z,11.49
2024-03-10T18:24:46.106Z,11.43
2024-03-10T18:27:13.053Z,11.46
2024-03-10T18:29:39.908Z,11.32
2024-03-10T18:32:06.801Z,11.42
2024-03-10T18:34:33.834Z,11.42
2024-03-10T18:37:00.307Z,11.41
2024-03-10T18:39:26.725Z,11.41
2024-03-10T18:41:55.762Z,11.43
2024-03-10T18:44:22.254Z,11.44
2024-03-10T18:46:48.925Z,11.43
2024-03-10T18:49:15.444Z,11.45
2024-03-10T18:51:41.940Z,11.32
2024-03-10T18:54:09.647Z,11.44
2024-03-10T18:56:36.142Z,11.46
2024-03-10T18:59:02.787Z,11.37
2024-03-10T19:01:29.350Z,11.46
2024-03-10T19:03:56.018Z,11.46
2024-03-10T19:06:23.804Z,11.43
2024-03-10T19:08:50.557Z,11.39
2024-03-10T19:11:19.096Z,11.38
2024-03-10T19:13:46.170Z,11.39
2024-03-10T19:16:13.662Z,11.33
2024-03-10T19:18:40.130Z,11.32
2024-03-10T19:21:07.193Z,11.23
2024-03-10T19:23:34.383Z,11.22
2024-03-10T19:26:04.668Z,11.21
2024-03-10T19:28:31.537Z,11.19
2024-03-10T19:31:01.097Z,11.15
2024-03-10T19:33:28.178Z,11.12
2024-03-10T19:35:56.231Z,10.98
2024-03-10T19:38:22.937Z,11.11
2024-03-10T19:40:49.740Z,11.07
2024-03-10T19:43:16.786Z,11.03
2024-03-10T19:45:43.622Z,10.90
2024-03-10T19:48:12.274Z,10.93
2024-03-10T19:50:39.068Z,10.86
2024-03-10T19:53:05.862Z,10.91
2024-03-10T19:55:34.317Z,10.98
2024-03-10T19:58:00.823Z,10.94
2024-03-10T20:00:29.244Z,10.94
2024-03-10T20:02:55.971Z,10.96
2024-03-10T20:05:22.534Z,10.95
2024-03-10T20:07:49.779Z,10.96
2024-03-10T20:10:19.482Z,10.96
2024-03-10T20:12:48.409Z,10.94
2024-03-10T20:15:16.186Z,10.94
2024-03-10T20:17:48.033Z,10.92
2024-03-10T20:20:20.796Z,10.91
2024-03-10T20:22:48.615Z,10.92
2024-03-10T20:25:15.352Z,10.79
2024-03-10T20:27:41.982Z,10.87
2024-03-10T20:30:09.811Z,10.87
2024-03-10T20:32:39.918Z,10.85
2024-03-10T20:35:08.198Z,10.74
2024-03-10T20:37:34.688Z,10.83
2024-03-10T20:40:02.064Z,10.72
2024-03-10T20:42:30.021Z,10.84
2024-03-10T20:44:56.912Z,10.86
2024-03-10T20:47:24.254Z,10.86
2024-03-10T20:49:51.170Z,10.84
2024-03-10T20:52:18.322Z,10.82
2024-03-10T20:54:44.955Z,10.81
2024-03-10T20:57:11.869Z,10.82
2024-03-10T20:59:39.675Z,10.79
2024-03-10T21:02:08.279Z,10.74
2024-03-10T21:04:35.688Z,10.75
2024-03-10T21:07:02.717Z,10.75
2024-03-10T21:09:29.460Z,10.72
2024-03-10T21:11:56.533Z,10.70
2024-03-10T21:14:23.211Z,10.61
2024-03-10T21:16:50.224Z,10.68
2024-03-10T21:19:16.712Z,10.68
2024-03-10T21:21:43.274Z,10.66
2024-03-10T21:24:09.794Z,10.62
2024-03-10T21:26:36.366Z,10.65
2024-03-10T21:29:04.415Z,10.64
2024-03-10T21:31:30.918Z,10.61
2024-03-10T21:33:57.469Z,10.52
2024-03-10T21:36:24.538Z,10.53
2024-03-10T21:38:51.713Z,10.56
2024-03-10T21:41:18.836Z,10.50
2024-03-10T21:43:47.042Z,10.56
2024-03-10T21:46:13.576Z,10.46
2024-03-10T21:48:40.816Z,10.53
2024-03-10T21:51:07.369Z,10.53
2024-03-10T21:53:35.903Z,10.54
2024-03-10T21:56:07.067Z,10.51
2024-03-10T21:58:33.578Z,10.40
2024-03-10T22:01:01.000Z,10.39
2024-03-10T22:03:31.429Z,10.48
2024-03-10T22:05:57.956Z,10.50
2024-03-10T22:08:24.457Z,10.36
2024-03-10T22:10:50.971Z,10.51
2024-03-10T22:13:17.998Z,10.51
2024-03-10T22:15:44.483Z,10.44
2024-03-10T22:18:11.396Z,10.49
2024-03-10T22:20:38.179Z,10.46
2024-03-10T22:23:05.662Z,10.39
2024-03-10T22:25:32.185Z,10.40
2024-03-10T22:27:59.003Z,10.33
2024-03-10T22:30:28.669Z,10.43
2024-03-10T22:32:55.370Z,10.35
2024-03-10T22:35:22.229Z,10.39
2024-03-10T22:37:50.699Z,10.52
2024-03-10T22:40:20.396Z,10.39
2024-03-10T22:42:49.502Z,10.60
2024-03-10T22:45:24.457Z,10.50
2024-03-10T22:47:56.813Z,10.46
2024-03-10T22:50:24.014Z,10.27
2024-03-10T22:52:50.734Z,10.38
2024-03-10T22:55:20.464Z,10.34
2024-03-10T22:57:47.537Z,10.30
2024-03-10T23:00:24.648Z,10.24
2024-03-10T23:02:57.055Z,10.27
2024-03-10T23:05:28.173Z,10.18
2024-03-10T23:08:02.076Z,10.24
2024-03-10T23:10:29.693Z,10.27
2024-03-10T23:12:57.852Z,10.13
2024-03-10T23:15:25.098Z,10.26
2024-03-10T23:17:51.890Z,10.17
2024-03-10T23:20:25.291Z,10.12
2024-03-10T23:22:57.221Z,10.26
2024-03-10T23:25:25.780Z,10.27
2024-03-10T23:27:53.783Z,10.23
2024-03-10T23:30:21.327Z,10.27
2024-03-10T23:32:49.880Z,10.22
2024-03-10T23:35:17.330Z,10.18
2024-03-10T23:37:46.798Z,10.26
2024-03-10T23:40:13.675Z,10.28
2024-03-10T23:42:41.480Z,10.27
2024-03-10T23:45:14.160Z,10.17
2024-03-10T23:47:42.418Z,10.26
2024-03-10T23:50:12.262Z,10.15
2024-03-10T23:52:40.343Z,10.17
2024-03-10T23:55:08.118Z,10.24
2024-03-10T23:57:35.107Z,10.23
